createdAt,value
2018-10-02T00:01:11.843Z,9.40
2018-10-02T00:08:42.114Z,9.50
2018-10-02T00:11:17.236Z,9.50
2018-10-02T00:13:52.546Z,9.50
2018-10-02T00:16:22.820Z,9.50
2018-10-02T00:18:54.299Z,9.50
2018-10-02T00:21:24.436Z,9.50
2018-10-02T00:23:55.049Z,9.40
2018-10-02T00:26:24.819Z,9.40
2018-10-02T00:28:55.427Z,9.40
2018-10-02T00:33:54.617Z,9.40
2018-10-02T00:36:27.906Z,9.40
2018-10-02T00:38:58.370Z,9.50
2018-10-02T00:43:59.528Z,9.50
2018-10-02T00:48:58.694Z,9.50
2018-10-02T00:51:28.478Z,9.60
2018-10-02T00:56:30.415Z,9.60
2018-10-02T00:58:59.968Z,9.60
2018-10-02T01:01:30.188Z,9.60
2018-10-02T01:03:59.857Z,9.50
2018-10-02T01:06:29.718Z,9.50
2018-10-02T01:08:59.670Z,9.40
2018-10-02T01:16:31.931Z,9.40
2018-10-02T01:19:01.765Z,9.40
2018-10-02T01:21:32.085Z,9.40
2018-10-02T01:24:01.651Z,9.40
2018-10-02T01:26:31.254Z,9.40
2018-10-02T01:29:00.955Z,9.40
2018-10-02T01:31:30.996Z,9.40
2018-10-02T01:34:00.490Z,9.30
2018-10-02T01:38:59.129Z,9.20
2018-10-02T01:43:57.863Z,9.20
2018-10-02T01:48:56.577Z,9.20
2018-10-02T01:51:26.133Z,9.20
2018-10-02T01:53:55.732Z,9.20
2018-10-02T01:56:25.777Z,9.20
2018-10-02T01:58:55.362Z,9.20
2018-10-02T02:01:25.277Z,9.20
2018-10-02T02:03:54.781Z,9.20
2018-10-02T02:06:24.275Z,9.10
2018-10-02T02:08:53.730Z,9.10
2018-10-02T02:14:04.585Z,9.00
2018-10-02T02:16:34.061Z,8.90
2018-10-02T02:19:03.706Z,8.90
2018-10-02T02:21:33.750Z,8.90
2018-10-02T02:24:03.199Z,8.90
2018-10-02T02:26:32.786Z,8.90
2018-10-02T02:29:02.286Z,8.90
2018-10-02T02:31:32.222Z,8.90
2018-10-02T02:34:01.949Z,8.90
2018-10-02T02:36:31.670Z,8.90
2018-10-02T02:39:01.591Z,8.90
2018-10-02T02:41:31.884Z,8.90
2018-10-02T02:44:03.791Z,8.90
2018-10-02T02:46:34.717Z,8.90
2018-10-02T02:49:10.569Z,8.90
2018-10-02T02:51:40.670Z,8.90
2018-10-02T02:54:10.063Z,8.90
2018-10-02T02:56:40.417Z,8.90
2018-10-02T02:59:10.864Z,8.90
2018-10-02T03:01:42.215Z,8.90
2018-10-02T03:06:42.303Z,8.80
2018-10-02T03:09:13.745Z,8.90
2018-10-02T03:16:44.655Z,8.90
2018-10-02T03:21:48.199Z,8.90
2018-10-02T03:24:19.303Z,8.90
2018-10-02T03:26:50.759Z,8.90
2018-10-02T03:29:22.038Z,8.90
2018-10-02T03:31:52.176Z,9.00
2018-10-02T03:34:22.524Z,8.90
2018-10-02T03:36:53.619Z,8.90
2018-10-02T03:39:23.487Z,9.00
2018-10-02T03:44:27.595Z,9.00
2018-10-02T03:46:59.006Z,9.00
2018-10-02T03:49:30.079Z,9.00
2018-10-02T03:52:00.606Z,9.00
2018-10-02T03:54:30.142Z,9.00
2018-10-02T03:57:01.129Z,9.00
2018-10-02T03:59:31.899Z,9.00
2018-10-02T04:02:03.417Z,9.10
2018-10-02T04:04:35.571Z,9.10
2018-10-02T04:07:07.516Z,9.10
2018-10-02T04:09:39.302Z,9.10
2018-10-02T04:12:09.299Z,9.10
2018-10-02T04:17:17.246Z,9.20
2018-10-02T04:22:20.619Z,9.20
2018-10-02T04:24:52.113Z,9.20
2018-10-02T04:27:22.013Z,9.20
2018-10-02T04:29:51.927Z,9.20
2018-10-02T04:32:22.851Z,9.20
2018-10-02T04:34:55.382Z,9.30
2018-10-02T04:37:25.675Z,9.30
2018-10-02T04:39:55.076Z,9.30
2018-10-02T04:42:25.322Z,9.40
2018-10-02T04:44:56.360Z,9.40
2018-10-02T04:47:26.699Z,9.40
2018-10-02T04:49:57.260Z,9.50
2018-10-02T04:52:27.967Z,9.50
2018-10-02T04:57:29.821Z,9.50
2018-10-02T04:59:59.262Z,9.50
2018-10-02T05:02:32.402Z,9.50
2018-10-02T05:05:03.868Z,9.40
2018-10-02T05:07:34.207Z,9.50
2018-10-02T05:12:36.654Z,9.50
2018-10-02T05:15:06.796Z,9.50
2018-10-02T05:17:37.458Z,9.50
2018-10-02T05:20:08.092Z,9.50
2018-10-02T05:22:41.283Z,9.50
2018-10-02T05:25:11.297Z,9.50
2018-10-02T05:27:42.703Z,9.50
2018-10-02T05:30:14.330Z,9.60
2018-10-02T05:32:44.592Z,9.50
2018-10-02T05:35:16.839Z,9.60
2018-10-02T05:37:50.035Z,9.60
2018-10-02T05:40:20.179Z,9.60
2018-10-02T05:45:22.269Z,9.60
2018-10-02T05:52:54.160Z,9.70
2018-10-02T05:57:54.553Z,9.60
2018-10-02T06:00:25.240Z,9.60
2018-10-02T06:10:36.489Z,9.70
2018-10-02T06:13:07.139Z,9.80
2018-10-02T06:15:39.243Z,9.80
2018-10-02T06:18:11.263Z,9.80
2018-10-02T06:20:43.116Z,9.80
2018-10-02T06:23:17.572Z,9.80
2018-10-02T06:25:50.314Z,9.80
2018-10-02T06:28:22.100Z,9.80
2018-10-02T06:30:53.633Z,9.80
2018-10-02T06:33:23.733Z,9.90
2018-10-02T06:40:56.357Z,9.90
2018-10-02T06:43:29.239Z,9.90
2018-10-02T06:45:58.670Z,10.00
2018-10-02T06:48:30.138Z,10.00
2018-10-02T06:55:57.595Z,9.90
2018-10-02T06:58:27.045Z,9.90
2018-10-02T07:00:59.639Z,10.00
2018-10-02T07:06:03.357Z,9.90
2018-10-02T07:11:08.476Z,9.80
2018-10-02T07:13:41.197Z,9.70
2018-10-02T07:16:11.746Z,9.70
2018-10-02T07:18:46.394Z,9.70
2018-10-02T07:21:16.820Z,9.70
2018-10-02T07:26:23.224Z,9.70
2018-10-02T07:28:54.637Z,9.70
2018-10-02T07:44:00.075Z,9.70
2018-10-02T07:46:34.809Z,9.70
2018-10-02T07:54:13.817Z,9.60
2018-10-02T07:56:46.294Z,9.60
2018-10-02T08:01:46.139Z,9.50
2018-10-02T08:04:15.572Z,9.60
2018-10-02T08:06:47.131Z,9.60
2018-10-02T08:11:52.926Z,9.60
2018-10-02T08:21:57.805Z,9.60
2018-10-02T08:24:30.788Z,9.60
2018-10-02T08:27:01.301Z,9.60
2018-10-02T08:29:34.989Z,9.60
2018-10-02T08:34:41.145Z,9.60
2018-10-02T08:37:25.151Z,9.60
2018-10-02T08:39:57.611Z,9.70
2018-10-02T08:42:28.298Z,9.60
2018-10-02T08:45:00.169Z,9.70
2018-10-02T08:47:39.572Z,9.60
2018-10-02T08:50:09.914Z,10.50
2018-10-02T08:55:09.576Z,9.60
2018-10-02T09:00:10.902Z,9.60
2018-10-02T09:02:40.431Z,9.60
2018-10-02T09:05:10.916Z,9.60
2018-10-02T09:07:40.958Z,9.60
2018-10-02T09:10:11.732Z,9.60
2018-10-02T09:12:43.159Z,9.60
2018-10-02T09:15:16.560Z,9.70
2018-10-02T09:17:53.790Z,9.70
2018-10-02T09:22:55.084Z,9.60
2018-10-02T09:25:26.022Z,9.60
2018-10-02T09:27:56.381Z,9.60
2018-10-02T09:30:32.048Z,9.50
2018-10-02T09:35:43.966Z,9.50
2018-10-02T09:38:19.731Z,9.50
2018-10-02T09:40:55.649Z,9.40
2018-10-02T09:43:32.409Z,9.40
2018-10-02T09:46:03.411Z,9.40
2018-10-02T09:48:35.143Z,9.30
2018-10-02T09:53:34.606Z,9.40
2018-10-02T09:56:04.931Z,9.40
2018-10-02T09:58:36.449Z,9.30
2018-10-02T10:01:13.698Z,9.30
2018-10-02T10:03:45.762Z,9.30
2018-10-02T10:06:16.906Z,9.20
2018-10-02T10:08:46.323Z,9.20
2018-10-02T10:11:15.836Z,9.20
2018-10-02T10:13:46.344Z,9.30
2018-10-02T10:16:17.774Z,9.30
2018-10-02T10:18:49.119Z,9.40
2018-10-02T10:21:20.416Z,9.50
2018-10-02T10:23:50.367Z,9.50
2018-10-02T10:26:20.610Z,9.50
2018-10-02T10:28:50.683Z,9.50
2018-10-02T10:31:22.190Z,9.50
2018-10-02T10:34:01.341Z,9.50
2018-10-02T10:36:31.181Z,9.50
2018-10-02T10:39:02.962Z,9.40
2018-10-02T10:41:34.864Z,9.50
2018-10-02T10:44:31.771Z,9.50
2018-10-02T10:49:32.862Z,9.60
2018-10-02T10:52:04.905Z,9.60
2018-10-02T10:54:37.757Z,9.60
2018-10-02T10:57:08.377Z,9.70
2018-10-02T10:59:40.564Z,9.70
2018-10-02T11:02:11.988Z,9.70
2018-10-02T11:04:43.745Z,9.80
2018-10-02T11:09:47.373Z,9.90
2018-10-02T11:12:24.303Z,9.90
2018-10-02T11:14:56.019Z,10.00
2018-10-02T11:17:30.223Z,10.00
2018-10-02T11:20:06.810Z,10.00
2018-10-02T11:25:10.799Z,10.10
2018-10-02T11:27:41.691Z,10.10
2018-10-02T11:30:21.562Z,7.80
2018-10-02T11:32:51.862Z,10.20
2018-10-02T11:35:29.378Z,10.30
2018-10-02T11:38:03.938Z,10.30
2018-10-02T11:40:35.019Z,10.30
2018-10-02T11:43:07.278Z,10.30
2018-10-02T11:45:37.246Z,10.40
2018-10-02T11:48:07.847Z,10.50
2018-10-02T11:50:38.516Z,10.50
2018-10-02T11:53:08.726Z,10.60
2018-10-02T11:55:38.691Z,10.50
2018-10-02T11:58:08.638Z,10.60
2018-10-02T12:00:39.164Z,10.60
2018-10-02T12:03:10.620Z,10.70
2018-10-02T12:08:09.120Z,10.70
2018-10-02T12:11:41.446Z,10.80
2018-10-02T12:14:11.370Z,10.90
2018-10-02T12:19:11.296Z,10.80
2018-10-02T12:21:40.847Z,10.80
2018-10-02T12:26:40.514Z,10.90
2018-10-02T12:31:39.993Z,10.90
2018-10-02T12:34:10.445Z,11.80
2018-10-02T12:36:40.030Z,11.00
2018-10-02T12:39:10.059Z,11.00
2018-10-02T12:46:38.129Z,11.00
2018-10-02T12:51:37.824Z,11.20
2018-10-02T12:54:20.007Z,11.20
2018-10-02T12:56:51.229Z,11.20
2018-10-02T13:01:55.133Z,11.40
2018-10-02T13:04:25.007Z,11.50
2018-10-02T13:06:55.002Z,11.50
2018-10-02T13:09:25.342Z,11.50
2018-10-02T13:11:56.320Z,11.60
2018-10-02T13:14:25.742Z,11.60
2018-10-02T13:16:57.640Z,11.70
2018-10-02T13:19:29.664Z,11.70
2018-10-02T13:21:59.551Z,11.80
2018-10-02T13:24:29.193Z,11.80
2018-10-02T13:26:59.257Z,11.90
2018-10-02T13:29:28.768Z,11.90
2018-10-02T13:31:58.777Z,12.00
2018-10-02T13:34:28.351Z,12.00
2018-10-02T13:36:58.532Z,12.00
2018-10-02T13:39:28.283Z,12.10
2018-10-02T13:41:57.793Z,12.10
2018-10-02T13:44:28.807Z,12.10
2018-10-02T13:47:00.671Z,12.10
2018-10-02T13:49:30.372Z,12.10
2018-10-02T13:52:00.605Z,12.20
2018-10-02T13:56:59.139Z,12.20
2018-10-02T13:59:28.995Z,12.20
2018-10-02T14:01:58.742Z,12.20
2018-10-02T14:04:28.522Z,12.20
2018-10-02T14:09:29.677Z,12.30
2018-10-02T14:11:59.197Z,12.30
2018-10-02T14:14:29.109Z,12.30
2018-10-02T14:19:47.187Z,12.40
2018-10-02T14:27:20.987Z,12.50
2018-10-02T14:32:22.370Z,12.60
2018-10-02T14:34:51.863Z,12.70
2018-10-02T14:37:21.571Z,12.70
2018-10-02T14:39:51.380Z,12.70
2018-10-02T14:44:52.672Z,12.80
2018-10-02T14:47:33.612Z,12.90
2018-10-02T14:52:35.615Z,12.90
2018-10-02T14:55:05.465Z,12.90
2018-10-02T14:57:35.741Z,13.00
2018-10-02T15:00:06.052Z,13.00
2018-10-02T15:02:35.696Z,13.00
2018-10-02T15:05:05.613Z,13.10
2018-10-02T15:07:35.864Z,13.10
2018-10-02T15:15:04.363Z,13.20
2018-10-02T15:17:36.500Z,13.20
2018-10-02T15:20:07.258Z,13.20
2018-10-02T15:22:36.847Z,13.30
2018-10-02T15:27:36.125Z,13.30
2018-10-02T15:30:05.917Z,13.30
2018-10-02T15:32:35.775Z,13.20
2018-10-02T15:37:35.277Z,13.40
2018-10-02T15:40:05.797Z,13.50
2018-10-02T15:42:35.418Z,13.40
2018-10-02T15:45:05.733Z,13.40
2018-10-02T15:47:36.244Z,13.50
2018-10-02T15:50:08.121Z,13.50
2018-10-02T15:52:37.858Z,13.60
2018-10-02T15:55:07.467Z,13.70
2018-10-02T15:57:37.162Z,13.70
2018-10-02T16:00:06.756Z,13.70
2018-10-02T16:02:36.651Z,13.80
2018-10-02T16:05:06.156Z,13.80
2018-10-02T16:10:04.967Z,13.90
2018-10-02T16:12:35.078Z,13.90
2018-10-02T16:15:04.605Z,14.00
2018-10-02T16:17:34.221Z,14.00
2018-10-02T16:20:03.892Z,14.00
2018-10-02T16:22:33.421Z,14.00
2018-10-02T16:30:00.650Z,14.00
2018-10-02T16:32:30.765Z,14.00
2018-10-02T16:35:00.314Z,14.00
2018-10-02T16:37:29.852Z,14.00
2018-10-02T16:42:32.599Z,14.00
2018-10-02T16:45:02.303Z,14.00
2018-10-02T16:47:32.282Z,14.00
2018-10-02T16:55:00.976Z,13.90
2018-10-02T16:57:31.994Z,13.90
2018-10-02T17:00:01.478Z,13.90
2018-10-02T17:07:29.356Z,13.80
2018-10-02T17:15:00.802Z,13.80
2018-10-02T17:17:30.273Z,13.80
2018-10-02T17:20:00.280Z,13.70
2018-10-02T17:22:30.377Z,13.70
2018-10-02T17:25:00.595Z,13.70
2018-10-02T17:27:38.671Z,13.70
2018-10-02T17:30:09.628Z,13.70
2018-10-02T17:32:39.391Z,13.70
2018-10-02T17:35:09.576Z,13.70
2018-10-02T17:37:39.151Z,13.70
2018-10-02T17:40:09.045Z,13.70
2018-10-02T17:42:38.644Z,13.70
2018-10-02T17:45:10.225Z,13.70
2018-10-02T17:47:39.804Z,13.80
2018-10-02T17:50:13.939Z,13.70
2018-10-02T17:52:43.564Z,13.80
2018-10-02T17:55:14.959Z,13.80
2018-10-02T17:57:44.986Z,13.80
2018-10-02T18:00:14.679Z,13.80
2018-10-02T18:02:44.159Z,13.80
2018-10-02T18:05:18.711Z,13.90
2018-10-02T18:07:48.856Z,13.90
2018-10-02T18:17:59.242Z,13.90
2018-10-02T18:20:30.578Z,13.90
2018-10-02T18:25:40.971Z,13.90
2018-10-02T18:28:32.922Z,14.00
2018-10-02T18:31:03.389Z,13.90
2018-10-02T18:33:32.888Z,13.90
2018-10-02T18:36:02.707Z,13.90
2018-10-02T18:38:34.030Z,14.00
2018-10-02T18:41:03.520Z,14.00
2018-10-02T18:43:34.437Z,14.00
2018-10-02T18:48:38.294Z,14.00
2018-10-02T18:53:39.876Z,14.00
2018-10-02T18:56:11.071Z,13.90
2018-10-02T18:58:41.055Z,13.80
2018-10-02T19:01:11.198Z,13.80
2018-10-02T19:03:41.192Z,13.80
2018-10-02T19:11:19.284Z,13.80
2018-10-02T19:13:49.135Z,13.80
2018-10-02T19:16:23.757Z,13.90
2018-10-02T19:18:53.455Z,13.90
2018-10-02T19:21:23.556Z,13.90
2018-10-02T19:23:53.277Z,13.90
2018-10-02T19:26:26.212Z,13.90
2018-10-02T19:34:19.335Z,14.00
2018-10-02T19:36:49.420Z,13.90
2018-10-02T19:39:32.118Z,13.90
2018-10-02T19:42:07.410Z,14.00
2018-10-02T19:44:38.212Z,14.00
2018-10-02T19:49:48.801Z,13.90
2018-10-02T19:52:20.464Z,13.80
2018-10-02T19:54:50.647Z,13.80
2018-10-02T19:59:52.606Z,13.90
2018-10-02T20:04:55.226Z,13.80
2018-10-02T20:17:30.208Z,13.80
2018-10-02T20:19:59.963Z,13.80
2018-10-02T20:22:34.574Z,13.70
2018-10-02T20:27:34.493Z,13.70
2018-10-02T20:30:06.209Z,13.60
2018-10-02T20:32:36.486Z,13.60
2018-10-02T20:37:50.668Z,13.70
2018-10-02T20:40:20.706Z,13.70
2018-10-02T20:42:52.249Z,13.70
2018-10-02T20:45:23.251Z,13.70
2018-10-02T20:47:52.816Z,13.70
2018-10-02T20:50:22.791Z,13.70
2018-10-02T20:55:24.497Z,13.70
2018-10-02T21:00:27.009Z,13.70
2018-10-02T21:02:57.376Z,13.80
2018-10-02T21:05:27.335Z,13.70
2018-10-02T21:07:57.581Z,13.70
2018-10-02T21:10:27.562Z,13.60
2018-10-02T21:13:01.214Z,13.60
2018-10-02T21:18:01.091Z,13.50
2018-10-02T21:20:44.431Z,13.50
2018-10-02T21:23:14.409Z,13.60
2018-10-02T21:25:47.935Z,13.60
2018-10-02T21:28:19.433Z,13.60
2018-10-02T21:30:51.235Z,13.50
2018-10-02T21:35:52.928Z,13.50
2018-10-02T21:38:27.666Z,13.50
2018-10-02T21:46:01.567Z,13.50
2018-10-02T21:48:32.535Z,13.40
2018-10-02T21:53:32.761Z,13.40
2018-10-02T21:56:04.026Z,13.40
2018-10-02T21:58:36.711Z,13.40
2018-10-02T22:06:13.720Z,13.40
2018-10-02T22:11:24.851Z,13.30
2018-10-02T22:13:55.444Z,13.20
2018-10-02T22:16:27.089Z,13.30
2018-10-02T22:18:58.672Z,13.30
2018-10-02T22:21:29.549Z,13.30
2018-10-02T22:24:00.076Z,13.30
2018-10-02T22:26:30.162Z,13.30
2018-10-02T22:29:00.030Z,13.20
2018-10-02T22:31:31.123Z,13.20
2018-10-02T22:34:04.815Z,13.20
2018-10-02T22:36:35.018Z,13.20
2018-10-02T22:39:12.640Z,13.10
2018-10-02T22:46:42.361Z,13.20
2018-10-02T22:51:45.997Z,13.10
2018-10-02T22:54:15.957Z,13.20
2018-10-02T22:56:45.935Z,13.20
2018-10-02T22:59:18.900Z,13.20
2018-10-02T23:04:18.778Z,13.30
2018-10-02T23:06:50.238Z,13.30
2018-10-02T23:09:21.156Z,13.40
2018-10-02T23:11:50.863Z,13.40
2018-10-02T23:14:20.800Z,13.40
2018-10-02T23:16:50.781Z,13.40
2018-10-02T23:19:20.866Z,13.60
2018-10-02T23:21:53.364Z,13.60
2018-10-02T23:24:23.244Z,13.70
2018-10-02T23:26:54.202Z,13.70
2018-10-02T23:29:29.026Z,13.80
2018-10-02T23:34:32.411Z,13.90
2018-10-02T23:37:03.806Z,13.90
2018-10-02T23:39:34.080Z,13.90
2018-10-02T23:44:38.029Z,13.80
2018-10-02T23:47:08.259Z,13.80
2018-10-02T23:49:38.581Z,13.80
2018-10-02T23:54:37.282Z,14.00
2018-10-02T23:57:07.703Z,14.00
2018-10-02T23:59:40.260Z,14.00
